sensor_id;sensor_type;location;lat;lon;timestamp;pressure;altitude;pressure_sealevel;temperature;humidity
36964;BME280;22878;48.616;35.326;2023-02-15T00:01:06;101208.23;;;0.65;100.00
36964;BME280;22878;48.616;35.326;2023-02-15T00:03:32;101210.45;;;0.66;100.00
36964;BME280;22878;48.616;35.326;2023-02-15T00:05:58;101205.89;;;0.67;100.00
36964;BME280;22878;48.616;35.326;2023-02-15T00:08:23;101210.16;;;0.66;100.00
36964;BME280;22878;48.616;35.326;2023-02-15T00:10:49;101211.04;;;0.64;100.00
36964;BME280;22878;48.616;35.326;2023-02-15T00:13:14;101211.25;;;0.62;100.00
36964;BME280;22878;48.616;35.326;2023-02-15T00:15:40;101210.83;;;0.62;100.00
36964;BME280;22878;48.616;35.326;2023-02-15T00:18:05;101215.38;;;0.61;100.00
36964;BME280;22878;48.616;35.326;2023-02-15T00:20:30;101214.71;;;0.60;100.00
36964;BME280;22878;48.616;35.326;2023-02-15T00:22:56;101216.30;;;0.60;100.00
36964;BME280;22878;48.616;35.326;2023-02-15T00:25:21;101217.94;;;0.61;100.00
36964;BME280;22878;48.616;35.326;2023-02-15T00:27:47;101217.05;;;0.63;100.00
36964;BME280;22878;48.616;35.326;2023-02-15T00:30:13;101216.64;;;0.63;100.00
36964;BME280;22878;48.616;35.326;2023-02-15T00:32:38;101217.66;;;0.65;100.00
36964;BME280;22878;48.616;35.326;2023-02-15T00:35:04;101218.97;;;0.66;100.00
36964;BME280;22878;48.616;35.326;2023-02-15T00:37:29;101222.73;;;0.67;100.00
36964;BME280;22878;48.616;35.326;2023-02-15T00:39:55;101225.10;;;0.68;100.00
36964;BME280;22878;48.616;35.326;2023-02-15T00:42:20;101223.34;;;0.70;100.00
36964;BME280;22878;48.616;35.326;2023-02-15T00:44:46;101217.81;;;0.70;100.00
36964;BME280;22878;48.616;35.326;2023-02-15T00:47:11;101217.04;;;0.71;100.00
36964;BME280;22878;48.616;35.326;2023-02-15T00:49:37;101222.68;;;0.71;100.00
36964;BME280;22878;48.616;35.326;2023-02-15T00:52:02;101225.72;;;0.72;100.00
36964;BME280;22878;48.616;35.326;2023-02-15T00:54:28;101226.99;;;0.73;100.00
36964;BME280;22878;48.616;35.326;2023-02-15T00:56:53;101224.38;;;0.73;100.00
36964;BME280;22878;48.616;35.326;2023-02-15T00:59:19;101223.10;;;0.73;100.00
36964;BME280;22878;48.616;35.326;2023-02-15T01:01:44;101226.17;;;0.74;100.00
36964;BME280;22878;48.616;35.326;2023-02-15T01:04:10;101226.30;;;0.75;100.00
36964;BME280;22878;48.616;35.326;2023-02-15T01:09:57;101222.05;;;0.75;100.00
36964;BME280;22878;48.616;35.326;2023-02-15T01:12:23;101221.90;;;0.76;100.00
36964;BME280;22878;48.616;35.326;2023-02-15T01:14:48;101225.11;;;0.76;100.00
36964;BME280;22878;48.616;35.326;2023-02-15T01:17:14;101228.00;;;0.77;100.00
36964;BME280;22878;48.616;35.326;2023-02-15T01:19:39;101230.10;;;0.78;100.00
36964;BME280;22878;48.616;35.326;2023-02-15T01:22:05;101229.60;;;0.80;100.00
36964;BME280;22878;48.616;35.326;2023-02-15T01:24:30;101232.94;;;0.80;100.00
36964;BME280;22878;48.616;35.326;2023-02-15T01:26:56;101233.64;;;0.80;100.00
36964;BME280;22878;48.616;35.326;2023-02-15T01:29:21;101233.14;;;0.81;100.00
36964;BME280;22878;48.616;35.326;2023-02-15T01:31:47;101229.81;;;0.81;100.00
36964;BME280;22878;48.616;35.326;2023-02-15T01:37:35;101232.59;;;0.80;100.00
36964;BME280;22878;48.616;35.326;2023-02-15T01:40:02;101231.86;;;0.78;100.00
36964;BME280;22878;48.616;35.326;2023-02-15T01:42:28;101236.76;;;0.79;100.00
36964;BME280;22878;48.616;35.326;2023-02-15T01:48:22;101240.79;;;0.78;100.00
36964;BME280;22878;48.616;35.326;2023-02-15T01:54:32;101239.66;;;0.74;100.00
36964;BME280;22878;48.616;35.326;2023-02-15T01:57:09;101242.02;;;0.73;100.00
36964;BME280;22878;48.616;35.326;2023-02-15T01:59:38;101247.60;;;0.72;100.00
36964;BME280;22878;48.616;35.326;2023-02-15T02:02:07;101250.51;;;0.73;100.00
36964;BME280;22878;48.616;35.326;2023-02-15T02:04:40;101254.53;;;0.72;100.00
36964;BME280;22878;48.616;35.326;2023-02-15T02:07:08;101257.35;;;0.71;100.00
36964;BME280;22878;48.616;35.326;2023-02-15T02:09:36;101260.32;;;0.69;100.00
36964;BME280;22878;48.616;35.326;2023-02-15T02:18:28;101258.27;;;0.72;100.00
36964;BME280;22878;48.616;35.326;2023-02-15T02:21:13;101260.30;;;0.68;100.00
36964;BME280;22878;48.616;35.326;2023-02-15T02:26:44;101261.05;;;0.65;100.00
36964;BME280;22878;48.616;35.326;2023-02-15T02:29:33;101261.38;;;0.62;100.00
36964;BME280;22878;48.616;35.326;2023-02-15T02:35:48;101267.38;;;0.57;100.00
36964;BME280;22878;48.616;35.326;2023-02-15T02:38:28;101271.11;;;0.56;100.00
36964;BME280;22878;48.616;35.326;2023-02-15T02:41:24;101271.89;;;0.56;100.00
36964;BME280;22878;48.616;35.326;2023-02-15T02:49:42;101279.27;;;0.51;100.00
36964;BME280;22878;48.616;35.326;2023-02-15T02:52:44;101278.13;;;0.50;100.00
36964;BME280;22878;48.616;35.326;2023-02-15T02:55:32;101282.56;;;0.47;100.00
36964;BME280;22878;48.616;35.326;2023-02-15T03:00:52;101285.23;;;0.45;100.00
36964;BME280;22878;48.616;35.326;2023-02-15T03:03:28;101280.88;;;0.46;100.00
36964;BME280;22878;48.616;35.326;2023-02-15T03:05:59;101279.23;;;0.45;100.00
36964;BME280;22878;48.616;35.326;2023-02-15T03:08:30;101281.52;;;0.45;100.00
36964;BME280;22878;48.616;35.326;2023-02-15T03:11:00;101278.39;;;0.44;100.00
36964;BME280;22878;48.616;35.326;2023-02-15T03:13:27;101283.34;;;0.44;100.00
36964;BME280;22878;48.616;35.326;2023-02-15T03:15:54;101280.29;;;0.43;100.00
36964;BME280;22878;48.616;35.326;2023-02-15T03:18:58;101284.98;;;0.42;100.00
36964;BME280;22878;48.616;35.326;2023-02-15T03:21:32;101285.63;;;0.44;100.00
36964;BME280;22878;48.616;35.326;2023-02-15T03:24:12;101283.94;;;0.45;100.00
36964;BME280;22878;48.616;35.326;2023-02-15T03:26:40;101284.77;;;0.44;100.00
36964;BME280;22878;48.616;35.326;2023-02-15T03:29:08;101285.57;;;0.43;100.00
36964;BME280;22878;48.616;35.326;2023-02-15T03:31:39;101288.25;;;0.43;100.00
36964;BME280;22878;48.616;35.326;2023-02-15T03:34:10;101290.12;;;0.42;100.00
36964;BME280;22878;48.616;35.326;2023-02-15T03:36:44;101290.55;;;0.42;100.00
36964;BME280;22878;48.616;35.326;2023-02-15T03:44:31;101290.84;;;0.39;100.00
36964;BME280;22878;48.616;35.326;2023-02-15T03:47:11;101291.71;;;0.38;100.00
36964;BME280;22878;48.616;35.326;2023-02-15T03:49:42;101295.22;;;0.38;100.00
36964;BME280;22878;48.616;35.326;2023-02-15T03:52:10;101297.77;;;0.37;100.00
36964;BME280;22878;48.616;35.326;2023-02-15T03:54:37;101297.45;;;0.37;100.00
36964;BME280;22878;48.616;35.326;2023-02-15T03:57:25;101299.07;;;0.37;100.00
36964;BME280;22878;48.616;35.326;2023-02-15T04:00:15;101302.87;;;0.37;100.00
36964;BME280;22878;48.616;35.326;2023-02-15T04:05:45;101308.80;;;0.38;100.00
36964;BME280;22878;48.616;35.326;2023-02-15T04:08:12;101315.04;;;0.38;100.00
36964;BME280;22878;48.616;35.326;2023-02-15T04:10:38;101318.05;;;0.38;100.00
36964;BME280;22878;48.616;35.326;2023-02-15T04:13:21;101318.84;;;0.38;100.00
36964;BME280;22878;48.616;35.326;2023-02-15T04:15:47;101319.61;;;0.38;100.00
36964;BME280;22878;48.616;35.326;2023-02-15T04:18:42;101321.92;;;0.38;100.00
36964;BME280;22878;48.616;35.326;2023-02-15T04:21:29;101320.70;;;0.38;100.00
36964;BME280;22878;48.616;35.326;2023-02-15T04:24:14;101320.41;;;0.37;100.00
36964;BME280;22878;48.616;35.326;2023-02-15T04:26:59;101325.08;;;0.36;100.00
36964;BME280;22878;48.616;35.326;2023-02-15T04:29:26;101327.61;;;0.36;100.00
36964;BME280;22878;48.616;35.326;2023-02-15T04:31:54;101328.77;;;0.37;100.00
36964;BME280;22878;48.616;35.326;2023-02-15T04:34:19;101334.69;;;0.37;100.00
36964;BME280;22878;48.616;35.326;2023-02-15T04:36:45;101335.92;;;0.36;100.00
36964;BME280;22878;48.616;35.326;2023-02-15T04:39:13;101346.79;;;0.37;100.00
36964;BME280;22878;48.616;35.326;2023-02-15T04:41:40;101351.95;;;0.36;100.00
36964;BME280;22878;48.616;35.326;2023-02-15T04:44:05;101349.60;;;0.37;100.00
36964;BME280;22878;48.616;35.326;2023-02-15T04:46:31;101353.46;;;0.37;100.00
36964;BME280;22878;48.616;35.326;2023-02-15T04:48:56;101359.38;;;0.36;100.00
36964;BME280;22878;48.616;35.326;2023-02-15T04:51:22;101361.01;;;0.36;100.00
36964;BME280;22878;48.616;35.326;2023-02-15T04:53:48;101369.42;;;0.37;100.00
36964;BME280;22878;48.616;35.326;2023-02-15T04:56:13;101369.02;;;0.37;100.00
36964;BME280;22878;48.616;35.326;2023-02-15T04:58:39;101372.61;;;0.38;100.00
36964;BME280;22878;48.616;35.326;2023-02-15T05:04:29;101375.69;;;0.37;100.00
36964;BME280;22878;48.616;35.326;2023-02-15T05:06:55;101377.44;;;0.38;100.00
36964;BME280;22878;48.616;35.326;2023-02-15T05:09:20;101381.48;;;0.39;100.00
36964;BME280;22878;48.616;35.326;2023-02-15T05:11:46;101379.54;;;0.41;100.00
36964;BME280;22878;48.616;35.326;2023-02-15T05:14:12;101383.07;;;0.42;100.00
36964;BME280;22878;48.616;35.326;2023-02-15T05:20:00;101389.02;;;0.46;100.00
36964;BME280;22878;48.616;35.326;2023-02-15T05:22:25;101392.30;;;0.47;100.00
36964;BME280;22878;48.616;35.326;2023-02-15T05:24:51;101392.49;;;0.48;100.00
36964;BME280;22878;48.616;35.326;2023-02-15T05:27:35;101387.14;;;0.50;100.00
36964;BME280;22878;48.616;35.326;2023-02-15T05:30:19;101393.83;;;0.52;100.00
36964;BME280;22878;48.616;35.326;2023-02-15T05:32:45;101387.11;;;0.54;100.00
36964;BME280;22878;48.616;35.326;2023-02-15T05:35:17;101391.65;;;0.56;100.00
36964;BME280;22878;48.616;35.326;2023-02-15T05:37:42;101396.42;;;0.57;100.00
36964;BME280;22878;48.616;35.326;2023-02-15T05:40:08;101395.88;;;0.59;100.00
36964;BME280;22878;48.616;35.326;2023-02-15T05:42:34;101397.93;;;0.60;100.00
36964;BME280;22878;48.616;35.326;2023-02-15T05:44:59;101398.92;;;0.62;100.00
36964;BME280;22878;48.616;35.326;2023-02-15T05:47:25;101396.09;;;0.63;100.00
36964;BME280;22878;48.616;35.326;2023-02-15T05:49:50;101398.59;;;0.66;100.00
36964;BME280;22878;48.616;35.326;2023-02-15T05:52:16;101397.14;;;0.70;100.00
36964;BME280;22878;48.616;35.326;2023-02-15T05:54:41;101403.64;;;0.72;100.00
36964;BME280;22878;48.616;35.326;2023-02-15T05:57:07;101407.48;;;0.74;100.00
36964;BME280;22878;48.616;35.326;2023-02-15T05:59:32;101411.70;;;0.75;100.00
36964;BME280;22878;48.616;35.326;2023-02-15T06:01:58;101407.34;;;0.78;100.00
36964;BME280;22878;48.616;35.326;2023-02-15T06:04:23;101409.48;;;0.82;100.00
36964;BME280;22878;48.616;35.326;2023-02-15T06:06:49;101410.89;;;0.85;100.00
36964;BME280;22878;48.616;35.326;2023-02-15T06:09:14;101413.15;;;0.89;100.00
36964;BME280;22878;48.616;35.326;2023-02-15T06:11:44;101414.05;;;0.92;100.00
36964;BME280;22878;48.616;35.326;2023-02-15T06:14:10;101419.61;;;0.95;100.00
36964;BME280;22878;48.616;35.326;2023-02-15T06:16:35;101416.48;;;0.96;100.00
36964;BME280;22878;48.616;35.326;2023-02-15T06:19:02;101416.27;;;0.99;100.00
36964;BME280;22878;48.616;35.326;2023-02-15T06:21:28;101420.73;;;1.02;100.00
36964;BME280;22878;48.616;35.326;2023-02-15T06:23:54;101426.52;;;1.07;100.00
36964;BME280;22878;48.616;35.326;2023-02-15T06:26:19;101428.00;;;1.09;100.00
36964;BME280;22878;48.616;35.326;2023-02-15T06:28:45;101432.77;;;1.16;100.00
36964;BME280;22878;48.616;35.326;2023-02-15T06:31:10;101429.52;;;1.20;100.00
36964;BME280;22878;48.616;35.326;2023-02-15T06:33:36;101428.62;;;1.25;100.00
36964;BME280;22878;48.616;35.326;2023-02-15T06:36:02;101431.52;;;1.31;100.00
36964;BME280;22878;48.616;35.326;2023-02-15T06:38:29;101432.05;;;1.37;100.00
36964;BME280;22878;48.616;35.326;2023-02-15T06:40:54;101431.38;;;1.41;100.00
36964;BME280;22878;48.616;35.326;2023-02-15T06:43:20;101433.29;;;1.44;100.00
36964;BME280;22878;48.616;35.326;2023-02-15T06:45:45;101434.45;;;1.48;100.00
36964;BME280;22878;48.616;35.326;2023-02-15T06:48:11;101437.34;;;1.54;100.00
36964;BME280;22878;48.616;35.326;2023-02-15T06:50:37;101435.24;;;1.59;100.00
36964;BME280;22878;48.616;35.326;2023-02-15T06:53:02;101431.77;;;1.62;100.00
36964;BME280;22878;48.616;35.326;2023-02-15T06:55:28;101430.82;;;1.64;100.00
36964;BME280;22878;48.616;35.326;2023-02-15T06:57:54;101431.94;;;1.65;100.00
36964;BME280;22878;48.616;35.326;2023-02-15T07:00:20;101432.31;;;1.71;100.00
36964;BME280;22878;48.616;35.326;2023-02-15T07:02:47;101432.60;;;1.76;100.00
36964;BME280;22878;48.616;35.326;2023-02-15T07:05:13;101430.14;;;1.76;100.00
36964;BME280;22878;48.616;35.326;2023-02-15T07:07:38;101429.27;;;1.79;100.00
36964;BME280;22878;48.616;35.326;2023-02-15T07:10:04;101428.83;;;1.84;100.00
36964;BME280;22878;48.616;35.326;2023-02-15T07:12:30;101431.90;;;1.84;100.00
36964;BME280;22878;48.616;35.326;2023-02-15T07:22:18;101433.47;;;2.02;100.00
36964;BME280;22878;48.616;35.326;2023-02-15T07:24:43;101435.54;;;2.03;100.00
36964;BME280;22878;48.616;35.326;2023-02-15T07:30:31;101437.29;;;1.96;100.00
36964;BME280;22878;48.616;35.326;2023-02-15T07:32:58;101438.45;;;2.01;100.00
36964;BME280;22878;48.616;35.326;2023-02-15T07:35:56;101439.19;;;2.03;100.00
36964;BME280;22878;48.616;35.326;2023-02-15T07:38:26;101444.73;;;2.07;100.00
36964;BME280;22878;48.616;35.326;2023-02-15T07:41:04;101444.84;;;2.07;100.00
36964;BME280;22878;48.616;35.326;2023-02-15T07:43:33;101445.86;;;2.06;100.00
36964;BME280;22878;48.616;35.326;2023-02-15T07:46:00;101447.92;;;2.11;100.00
36964;BME280;22878;48.616;35.326;2023-02-15T07:48:26;101449.08;;;2.18;100.00
36964;BME280;22878;48.616;35.326;2023-02-15T07:50:52;101452.77;;;2.19;100.00
36964;BME280;22878;48.616;35.326;2023-02-15T07:53:18;101451.66;;;2.19;100.00
36964;BME280;22878;48.616;35.326;2023-02-15T07:55:43;101453.91;;;2.19;100.00
36964;BME280;22878;48.616;35.326;2023-02-15T07:58:09;101452.95;;;2.19;100.00
36964;BME280;22878;48.616;35.326;2023-02-15T08:00:35;101456.88;;;2.22;100.00
36964;BME280;22878;48.616;35.326;2023-02-15T08:03:23;101460.33;;;2.24;100.00
36964;BME280;22878;48.616;35.326;2023-02-15T08:05:56;101458.59;;;2.29;100.00
36964;BME280;22878;48.616;35.326;2023-02-15T08:08:23;101462.93;;;2.29;100.00
36964;BME280;22878;48.616;35.326;2023-02-15T08:11:01;101461.13;;;2.28;100.00
36964;BME280;22878;48.616;35.326;2023-02-15T08:13:48;101463.30;;;2.28;100.00
36964;BME280;22878;48.616;35.326;2023-02-15T08:16:37;101462.27;;;2.31;100.00
36964;BME280;22878;48.616;35.326;2023-02-15T08:19:09;101457.56;;;2.34;100.00
36964;BME280;22878;48.616;35.326;2023-02-15T08:21:37;101461.36;;;2.37;100.00
36964;BME280;22878;48.616;35.326;2023-02-15T08:24:04;101462.63;;;2.45;100.00
36964;BME280;22878;48.616;35.326;2023-02-15T08:26:32;101467.52;;;2.54;100.00
36964;BME280;22878;48.616;35.326;2023-02-15T08:28:58;101464.30;;;2.54;100.00
36964;BME280;22878;48.616;35.326;2023-02-15T08:31:25;101468.53;;;2.57;100.00
36964;BME280;22878;48.616;35.326;2023-02-15T08:33:52;101473.59;;;2.58;100.00
36964;BME280;22878;48.616;35.326;2023-02-15T08:36:20;101472.23;;;2.54;100.00
36964;BME280;22878;48.616;35.326;2023-02-15T08:38:46;101473.93;;;2.59;100.00
36964;BME280;22878;48.616;35.326;2023-02-15T08:43:50;101477.72;;;2.61;100.00
36964;BME280;22878;48.616;35.326;2023-02-15T08:46:17;101480.47;;;2.61;100.00
36964;BME280;22878;48.616;35.326;2023-02-15T08:48:44;101481.29;;;2.58;100.00
36964;BME280;22878;48.616;35.326;2023-02-15T08:51:16;101483.16;;;2.63;100.00
36964;BME280;22878;48.616;35.326;2023-02-15T08:53:44;101486.48;;;2.64;100.00
36964;BME280;22878;48.616;35.326;2023-02-15T08:56:11;101482.61;;;2.65;100.00
36964;BME280;22878;48.616;35.326;2023-02-15T08:58:37;101482.08;;;2.62;100.00
36964;BME280;22878;48.616;35.326;2023-02-15T09:04:25;101478.96;;;2.75;100.00
36964;BME280;22878;48.616;35.326;2023-02-15T09:06:51;101473.33;;;2.84;100.00
36964;BME280;22878;48.616;35.326;2023-02-15T09:09:18;101470.32;;;2.93;100.00
36964;BME280;22878;48.616;35.326;2023-02-15T09:11:46;101469.97;;;3.00;100.00
36964;BME280;22878;48.616;35.326;2023-02-15T09:14:14;101470.91;;;2.98;100.00
36964;BME280;22878;48.616;35.326;2023-02-15T09:16:43;101464.73;;;3.01;100.00
36964;BME280;22878;48.616;35.326;2023-02-15T09:19:14;101464.77;;;3.06;100.00
36964;BME280;22878;48.616;35.326;2023-02-15T09:21:41;101463.57;;;3.16;100.00
36964;BME280;22878;48.616;35.326;2023-02-15T09:24:09;101460.86;;;3.19;100.00
36964;BME280;22878;48.616;35.326;2023-02-15T09:26:37;101462.83;;;3.24;100.00
36964;BME280;22878;48.616;35.326;2023-02-15T09:32:27;101463.89;;;3.15;100.00
36964;BME280;22878;48.616;35.326;2023-02-15T09:34:52;101463.52;;;3.18;100.00
36964;BME280;22878;48.616;35.326;2023-02-15T09:37:18;101471.16;;;3.21;100.00
36964;BME280;22878;48.616;35.326;2023-02-15T09:39:44;101466.33;;;3.17;100.00
36964;BME280;22878;48.616;35.326;2023-02-15T09:50:20;101470.08;;;3.19;100.00
36964;BME280;22878;48.616;35.326;2023-02-15T09:55:42;101470.29;;;3.19;100.00
36964;BME280;22878;48.616;35.326;2023-02-15T10:01:12;101476.55;;;3.23;100.00
36964;BME280;22878;48.616;35.326;2023-02-15T10:04:12;101477.45;;;3.30;100.00
36964;BME280;22878;48.616;35.326;2023-02-15T10:06:47;101477.02;;;3.38;100.00
36964;BME280;22878;48.616;35.326;2023-02-15T10:26:47;101482.65;;;3.39;100.00
36964;BME280;22878;48.616;35.326;2023-02-15T10:49:08;101486.59;;;3.61;100.00
36964;BME280;22878;48.616;35.326;2023-02-15T10:54:42;101485.75;;;3.45;100.00
36964;BME280;22878;48.616;35.326;2023-02-15T11:07:57;101486.37;;;3.21;100.00
36964;BME280;22878;48.616;35.326;2023-02-15T11:13:04;101485.19;;;3.38;100.00
36964;BME280;22878;48.616;35.326;2023-02-15T11:15:34;101482.58;;;3.58;100.00
36964;BME280;22878;48.616;35.326;2023-02-15T11:21:43;101492.86;;;3.92;100.00
36964;BME280;22878;48.616;35.326;2023-02-15T11:24:14;101489.78;;;4.08;100.00
36964;BME280;22878;48.616;35.326;2023-02-15T11:29:50;101495.44;;;4.25;100.00
36964;BME280;22878;48.616;35.326;2023-02-15T11:32:46;101494.91;;;4.12;100.00
36964;BME280;22878;48.616;35.326;2023-02-15T11:37:54;101497.52;;;4.21;100.00
36964;BME280;22878;48.616;35.326;2023-02-15T11:47:17;101504.98;;;4.16;100.00
36964;BME280;22878;48.616;35.326;2023-02-15T11:49:44;101502.71;;;4.04;100.00
36964;BME280;22878;48.616;35.326;2023-02-15T11:52:13;101505.64;;;4.04;100.00
36964;BME280;22878;48.616;35.326;2023-02-15T12:01:38;101513.53;;;3.66;98.78
36964;BME280;22878;48.616;35.326;2023-02-15T12:04:15;101522.02;;;3.58;100.00
36964;BME280;22878;48.616;35.326;2023-02-15T12:06:49;101521.91;;;3.58;100.00
36964;BME280;22878;48.616;35.326;2023-02-15T12:09:34;101525.12;;;3.64;100.00
36964;BME280;22878;48.616;35.326;2023-02-15T12:14:48;101529.64;;;3.52;100.00
36964;BME280;22878;48.616;35.326;2023-02-15T12:22:48;101537.41;;;3.09;100.00
36964;BME280;22878;48.616;35.326;2023-02-15T12:27:58;101542.52;;;2.95;100.00
36964;BME280;22878;48.616;35.326;2023-02-15T12:30:36;101540.80;;;2.86;99.87
36964;BME280;22878;48.616;35.326;2023-02-15T12:33:15;101537.77;;;2.76;100.00
36964;BME280;22878;48.616;35.326;2023-02-15T12:35:42;101545.39;;;2.79;100.00
36964;BME280;22878;48.616;35.326;2023-02-15T12:40:34;101544.27;;;2.65;99.49
36964;BME280;22878;48.616;35.326;2023-02-15T12:43:01;101545.70;;;2.68;98.70
36964;BME280;22878;48.616;35.326;2023-02-15T12:45:35;101547.42;;;2.69;100.00
36964;BME280;22878;48.616;35.326;2023-02-15T12:50:35;101553.62;;;2.80;100.00
36964;BME280;22878;48.616;35.326;2023-02-15T12:55:52;101556.77;;;2.96;97.64
36964;BME280;22878;48.616;35.326;2023-02-15T12:58:20;101558.27;;;2.89;94.37
36964;BME280;22878;48.616;35.326;2023-02-15T13:00:47;101555.88;;;2.83;93.85
36964;BME280;22878;48.616;35.326;2023-02-15T13:03:18;101559.86;;;2.78;95.28
36964;BME280;22878;48.616;35.326;2023-02-15T13:05:46;101559.30;;;2.73;97.22
36964;BME280;22878;48.616;35.326;2023-02-15T13:08:20;101568.08;;;2.76;96.94
36964;BME280;22878;48.616;35.326;2023-02-15T13:11:01;101566.44;;;2.70;96.21
36964;BME280;22878;48.616;35.326;2023-02-15T13:13:32;101574.10;;;2.68;96.89
36964;BME280;22878;48.616;35.326;2023-02-15T13:16:11;101576.92;;;2.58;96.00
36964;BME280;22878;48.616;35.326;2023-02-15T13:22:02;101585.37;;;2.30;99.87
36964;BME280;22878;48.616;35.326;2023-02-15T13:24:39;101585.49;;;2.20;99.95
36964;BME280;22878;48.616;35.326;2023-02-15T13:27:14;101592.11;;;2.16;100.00
36964;BME280;22878;48.616;35.326;2023-02-15T13:29:44;101594.77;;;2.12;100.00
36964;BME280;22878;48.616;35.326;2023-02-15T13:32:30;101601.60;;;2.10;100.00
36964;BME280;22878;48.616;35.326;2023-02-15T13:34:59;101609.48;;;2.01;100.00
36964;BME280;22878;48.616;35.326;2023-02-15T13:42:42;101615.36;;;1.80;100.00
36964;BME280;22878;48.616;35.326;2023-02-15T13:45:33;101615.80;;;1.72;100.00
36964;BME280;22878;48.616;35.326;2023-02-15T14:06:08;101632.29;;;1.51;100.00
36964;BME280;22878;48.616;35.326;2023-02-15T14:14:09;101630.96;;;1.45;100.00
36964;BME280;22878;48.616;35.326;2023-02-15T14:20:06;101632.88;;;1.34;100.00
36964;BME280;22878;48.616;35.326;2023-02-15T14:22:45;101630.63;;;1.32;100.00
36964;BME280;22878;48.616;35.326;2023-02-15T14:25:25;101626.89;;;1.34;100.00
36964;BME280;22878;48.616;35.326;2023-02-15T14:28:06;101631.27;;;1.34;100.00
36964;BME280;22878;48.616;35.326;2023-02-15T14:33:56;101635.52;;;1.30;100.00
36964;BME280;22878;48.616;35.326;2023-02-15T14:36:24;101638.25;;;1.30;100.00
36964;BME280;22878;48.616;35.326;2023-02-15T14:38:57;101640.98;;;1.27;100.00
36964;BME280;22878;48.616;35.326;2023-02-15T14:44:57;101647.15;;;1.16;100.00
36964;BME280;22878;48.616;35.326;2023-02-15T14:47:36;101646.78;;;1.10;100.00
36964;BME280;22878;48.616;35.326;2023-02-15T14:56:22;101659.96;;;0.97;100.00
36964;BME280;22878;48.616;35.326;2023-02-15T15:01:32;101661.13;;;0.92;100.00
36964;BME280;22878;48.616;35.326;2023-02-15T15:04:29;101670.25;;;0.92;100.00
36964;BME280;22878;48.616;35.326;2023-02-15T15:07:19;101670.93;;;0.88;100.00
36964;BME280;22878;48.616;35.326;2023-02-15T15:09:57;101671.23;;;0.89;100.00
36964;BME280;22878;48.616;35.326;2023-02-15T15:14:52;101677.77;;;0.91;100.00
36964;BME280;22878;48.616;35.326;2023-02-15T15:20:49;101679.77;;;0.85;100.00
36964;BME280;22878;48.616;35.326;2023-02-15T15:26:36;101690.45;;;0.85;100.00
36964;BME280;22878;48.616;35.326;2023-02-15T15:29:06;101686.40;;;0.83;100.00
36964;BME280;22878;48.616;35.326;2023-02-15T15:31:42;101691.34;;;0.82;100.00
36964;BME280;22878;48.616;35.326;2023-02-15T15:34:51;101691.27;;;0.81;100.00
36964;BME280;22878;48.616;35.326;2023-02-15T15:43:56;101698.59;;;0.81;100.00
36964;BME280;22878;48.616;35.326;2023-02-15T15:49:22;101706.05;;;0.81;100.00
36964;BME280;22878;48.616;35.326;2023-02-15T15:51:49;101707.28;;;0.80;100.00
36964;BME280;22878;48.616;35.326;2023-02-15T15:54:18;101710.23;;;0.79;100.00
36964;BME280;22878;48.616;35.326;2023-02-15T15:56:49;101711.48;;;0.77;100.00
36964;BME280;22878;48.616;35.326;2023-02-15T16:02:50;101721.98;;;0.71;100.00
36964;BME280;22878;48.616;35.326;2023-02-15T16:05:16;101724.02;;;0.69;100.00
36964;BME280;22878;48.616;35.326;2023-02-15T16:07:41;101727.30;;;0.68;100.00
36964;BME280;22878;48.616;35.326;2023-02-15T16:10:23;101727.43;;;0.67;100.00
36964;BME280;22878;48.616;35.326;2023-02-15T16:12:51;101728.13;;;0.67;100.00
36964;BME280;22878;48.616;35.326;2023-02-15T16:15:24;101728.43;;;0.64;100.00
36964;BME280;22878;48.616;35.326;2023-02-15T16:17:56;101731.60;;;0.62;100.00
36964;BME280;22878;48.616;35.326;2023-02-15T16:20:26;101732.08;;;0.61;100.00
36964;BME280;22878;48.616;35.326;2023-02-15T16:26:57;101733.86;;;0.56;100.00
36964;BME280;22878;48.616;35.326;2023-02-15T16:29:26;101739.23;;;0.54;100.00
36964;BME280;22878;48.616;35.326;2023-02-15T16:32:02;101741.95;;;0.52;100.00
36964;BME280;22878;48.616;35.326;2023-02-15T16:34:30;101746.09;;;0.50;100.00
36964;BME280;22878;48.616;35.326;2023-02-15T16:43:06;101754.14;;;0.45;100.00
36964;BME280;22878;48.616;35.326;2023-02-15T16:45:35;101754.98;;;0.46;100.00
36964;BME280;22878;48.616;35.326;2023-02-15T16:51:27;101761.00;;;0.42;100.00
36964;BME280;22878;48.616;35.326;2023-02-15T16:53:55;101766.17;;;0.42;100.00
36964;BME280;22878;48.616;35.326;2023-02-15T16:56:27;101762.40;;;0.39;100.00
36964;BME280;22878;48.616;35.326;2023-02-15T16:58:54;101770.30;;;0.36;100.00
36964;BME280;22878;48.616;35.326;2023-02-15T17:01:22;101776.63;;;0.35;100.00
36964;BME280;22878;48.616;35.326;2023-02-15T17:04:13;101774.34;;;0.35;100.00
36964;BME280;22878;48.616;35.326;2023-02-15T17:06:39;101775.14;;;0.33;100.00
36964;BME280;22878;48.616;35.326;2023-02-15T17:09:16;101775.40;;;0.32;100.00
36964;BME280;22878;48.616;35.326;2023-02-15T17:11:47;101772.28;;;0.30;100.00
36964;BME280;22878;48.616;35.326;2023-02-15T17:17:35;101775.82;;;0.23;100.00
36964;BME280;22878;48.616;35.326;2023-02-15T17:20:00;101776.04;;;0.21;100.00
36964;BME280;22878;48.616;35.326;2023-02-15T17:22:26;101774.72;;;0.20;100.00
36964;BME280;22878;48.616;35.326;2023-02-15T17:25:00;101777.00;;;0.17;100.00
36964;BME280;22878;48.616;35.326;2023-02-15T17:27:28;101776.79;;;0.14;100.00